WXM80 ListenWXM80 Stop

You find our weather info also at:

UK Metoffice

WeatherCloud

Weather Underground

Northeastern Weather Network

AWEKAS

Citizen Weather Observer Program (CWOP)

HAMweather, WeatherForYou, PWS Weather


Weather Underground History page Text

Daily Summary for April 30, 2016 Units:  English    Metric   Both
« Previous Day
Next Day »
Daily Weekly Monthly Yearly Custom
  High: Low: Average:
Temperature: 64.7 °F 45.2 °F 52.6 °F
Dew Point: 49.0 °F 39.0 °F 42.6 °F
Humidity: 88 % 45 % 70 %
Wind Speed: 6.8 mph 0.0 mph 2.3 mph
Wind Gust: 13.8 mph - -
Wind:- - East
Pressure: 30.24 in 30.12 in -
Precipitation: 0.00 in    
Historical Graphs
 
 
Tabular Data for April 30, 2016
Time Temperature Dew Point Pressure Wind Wind Speed Wind Gust Humidity Rainfall Rate (Hourly)
00:04 45.9 °F 39.8 °F 30.12 in ENE 3.2 mph 4.6 mph 79 % 0.00 in
00:09 46.0 °F 39.9 °F 30.12 in ENE 2.2 mph 3.5 mph 79 % 0.00 in
00:14 46.0 °F 40.5 °F 30.12 in ENE 1.9 mph 3.5 mph 81 % 0.00 in
00:19 46.1 °F 40.3 °F 30.13 in ENE 3.0 mph 4.6 mph 80 % 0.00 in
00:24 46.1 °F 40.6 °F 30.14 in Calm   1.2 mph 81 % 0.00 in
00:29 46.2 °F 41.0 °F 30.14 in ENE 1.1 mph 2.3 mph 82 % 0.00 in
00:34 46.2 °F 41.3 °F 30.14 in ENE 0.8 mph 1.2 mph 83 % 0.00 in
00:39 46.1 °F 40.9 °F 30.14 in ENE 1.7 mph 2.3 mph 82 % 0.00 in
00:44 46.1 °F 40.9 °F 30.15 in ENE 1.8 mph 3.0 mph 82 % 0.00 in
00:49 46.1 °F 41.2 °F 30.14 in ENE 5.0 mph 7.0 mph 83 % 0.00 in
00:55 46.1 °F 40.9 °F 30.14 in ENE 1.0 mph 2.3 mph 82 % 0.00 in
01:00 46.2 °F 41.0 °F 30.15 in NE 1.3 mph 2.3 mph 82 % 0.00 in
01:05 46.1 °F 40.6 °F 30.14 in ENE 3.3 mph 4.0 mph 81 % 0.00 in
01:10 46.2 °F 40.7 °F 30.15 in ENE 2.4 mph 4.6 mph 81 % 0.00 in
01:15 46.2 °F 40.7 °F 30.15 in ENE 3.6 mph 5.8 mph 81 % 0.00 in
01:20 46.3 °F 41.1 °F 30.15 in ENE 3.2 mph 4.6 mph 82 % 0.00 in
01:25 46.3 °F 41.1 °F 30.15 in NE 4.1 mph 6.9 mph 82 % 0.00 in
01:30 46.3 °F 41.1 °F 30.16 in ENE 3.2 mph 4.6 mph 82 % 0.00 in
01:35 46.4 °F 41.2 °F 30.16 in ENE 2.0 mph 3.5 mph 82 % 0.00 in
01:40 46.4 °F 41.2 °F 30.15 in NE 2.4 mph 4.6 mph 82 % 0.00 in
01:46 46.5 °F 41.9 °F 30.16 in NNE 2.2 mph 4.0 mph 84 % 0.00 in
01:51 46.4 °F 41.8 °F 30.16 in NNE 3.3 mph 4.6 mph 84 % 0.00 in
01:56 46.4 °F 41.8 °F 30.16 in NNE 1.6 mph 3.5 mph 84 % 0.00 in
02:01 46.4 °F 42.1 °F 30.15 in NNE 1.0 mph 3.5 mph 85 % 0.00 in
02:06 46.4 °F 41.8 °F 30.15 in ENE 3.4 mph 5.8 mph 84 % 0.00 in
02:11 46.3 °F 41.7 °F 30.15 in NNE 1.1 mph 3.5 mph 84 % 0.00 in
02:16 46.3 °F 41.7 °F 30.15 in ENE 2.3 mph 3.5 mph 84 % 0.00 in
02:21 46.3 °F 41.7 °F 30.15 in NE 2.0 mph 5.0 mph 84 % 0.00 in
02:26 46.3 °F 41.7 °F 30.15 in ENE 1.3 mph 4.6 mph 84 % 0.00 in
02:31 46.3 °F 41.7 °F 30.14 in ENE 4.9 mph 8.1 mph 84 % 0.00 in
02:37 46.3 °F 41.4 °F 30.14 in ENE 3.8 mph 5.8 mph 83 % 0.00 in
02:42 46.2 °F 41.6 °F 30.13 in ENE 5.0 mph 10.4 mph 84 % 0.00 in
02:47 46.2 °F 41.9 °F 30.14 in NE 2.3 mph 6.9 mph 85 % 0.00 in
02:52 46.2 °F 41.9 °F 30.14 in East 3.5 mph 6.0 mph 85 % 0.00 in
02:57 46.1 °F 41.8 °F 30.14 in ENE 5.0 mph 6.9 mph 85 % 0.00 in
03:02 46.1 °F 41.8 °F 30.13 in ENE 4.2 mph 8.1 mph 85 % 0.00 in
03:07 46.1 °F 42.1 °F 30.13 in ENE 3.6 mph 4.6 mph 86 % 0.00 in
03:12 46.1 °F 42.1 °F 30.13 in ENE 5.3 mph 8.1 mph 86 % 0.00 in
03:17 46.1 °F 42.1 °F 30.14 in ENE 4.9 mph 8.1 mph 86 % 0.00 in
03:22 46.1 °F 42.1 °F 30.14 in NE 3.4 mph 8.1 mph 86 % 0.00 in
03:28 46.1 °F 42.1 °F 30.14 in ENE 4.1 mph 7.0 mph 86 % 0.00 in
03:33 46.1 °F 42.4 °F 30.14 in ENE 4.8 mph 9.2 mph 87 % 0.00 in
03:38 46.1 °F 42.4 °F 30.14 in ENE 4.4 mph 9.0 mph 87 % 0.00 in
03:43 46.1 °F 42.4 °F 30.14 in ENE 2.7 mph 5.0 mph 87 % 0.00 in
03:48 46.1 °F 42.1 °F 30.14 in ENE 5.9 mph 9.0 mph 86 % 0.00 in
03:53 46.0 °F 42.0 °F 30.14 in ENE 4.8 mph 8.1 mph 86 % 0.00 in
03:58 46.0 °F 42.0 °F 30.14 in ENE 4.0 mph 7.0 mph 86 % 0.00 in
04:03 46.1 °F 42.1 °F 30.14 in ENE 2.7 mph 3.5 mph 86 % 0.00 in
04:08 46.1 °F 42.1 °F 30.14 in ENE 1.9 mph 6.9 mph 86 % 0.00 in
04:13 46.1 °F 42.1 °F 30.14 in NE 2.3 mph 7.0 mph 86 % 0.00 in
04:19 46.1 °F 42.1 °F 30.14 in ENE 3.7 mph 6.9 mph 86 % 0.00 in
04:24 46.1 °F 42.1 °F 30.14 in ENE 3.3 mph 5.8 mph 86 % 0.00 in
04:29 46.1 °F 42.1 °F 30.15 in ENE 2.5 mph 3.5 mph 86 % 0.00 in
04:34 46.1 °F 42.1 °F 30.15 in ENE 2.8 mph 4.0 mph 86 % 0.00 in
04:39 46.0 °F 41.7 °F 30.15 in ENE 2.7 mph 3.5 mph 85 % 0.00 in
04:44 46.0 °F 41.7 °F 30.15 in ENE 2.5 mph 3.5 mph 85 % 0.00 in
04:49 46.0 °F 42.0 °F 30.15 in ENE 2.6 mph 4.0 mph 86 % 0.00 in
04:54 46.1 °F 42.1 °F 30.15 in NE 2.2 mph 4.6 mph 86 % 0.00 in
04:59 46.1 °F 42.1 °F 30.15 in ENE 0.9 mph 3.5 mph 86 % 0.00 in
05:05 46.1 °F 42.1 °F 30.15 in ENE 0.6 mph 1.2 mph 86 % 0.00 in
05:10 46.1 °F 42.1 °F 30.15 in ENE 1.2 mph 3.5 mph 86 % 0.00 in
05:15 46.1 °F 42.1 °F 30.16 in ENE 0.7 mph 3.5 mph 86 % 0.00 in
05:20 46.1 °F 42.4 °F 30.15 in ENE 2.5 mph 3.5 mph 87 % 0.00 in
05:25 46.2 °F 42.5 °F 30.16 in ENE 1.7 mph 4.6 mph 87 % 0.00 in
05:30 46.2 °F 42.5 °F 30.16 in ENE 0.9 mph 1.2 mph 87 % 0.00 in
05:35 46.1 °F 42.4 °F 30.16 in ENE 2.4 mph 3.5 mph 87 % 0.00 in
05:40 46.1 °F 42.4 °F 30.17 in NE 3.9 mph 4.6 mph 87 % 0.00 in
05:45 46.1 °F 42.4 °F 30.17 in ENE 2.2 mph 3.5 mph 87 % 0.00 in
05:50 46.1 °F 42.1 °F 30.15 in East 1.9 mph 3.5 mph 86 % 0.00 in
05:56 46.1 °F 42.4 °F 30.16 in ENE 2.8 mph 4.6 mph 87 % 0.00 in
06:01 46.0 °F 42.0 °F 30.17 in ENE 2.5 mph 3.5 mph 86 % 0.00 in
06:06 46.0 °F 42.3 °F 30.16 in ENE 4.3 mph 7.0 mph 87 % 0.00 in
06:11 46.0 °F 42.3 °F 30.16 in ENE 3.6 mph 6.9 mph 87 % 0.00 in
06:16 46.0 °F 42.3 °F 30.16 in ENE 2.9 mph 6.9 mph 87 % 0.00 in
06:21 46.1 °F 42.4 °F 30.17 in ENE 4.4 mph 8.0 mph 87 % 0.00 in
06:26 46.2 °F 42.5 °F 30.17 in ENE 5.1 mph 8.1 mph 87 % 0.00 in
06:31 46.3 °F 42.6 °F 30.17 in ENE 4.8 mph 6.9 mph 87 % 0.00 in
06:36 46.3 °F 42.6 °F 30.17 in ENE 4.0 mph 4.6 mph 87 % 0.00 in
06:41 46.4 °F 42.7 °F 30.18 in ENE 2.8 mph 3.5 mph 87 % 0.00 in
06:47 46.5 °F 42.8 °F 30.18 in East 4.0 mph 7.0 mph 87 % 0.00 in
06:52 46.5 °F 42.8 °F 30.20 in ENE 2.0 mph 4.6 mph 87 % 0.00 in
06:57 46.7 °F 43.0 °F 30.20 in ENE 1.4 mph 3.5 mph 87 % 0.00 in
07:02 46.8 °F 43.4 °F 30.20 in NE 2.4 mph 3.5 mph 88 % 0.00 in
07:07 46.8 °F 43.1 °F 30.20 in North 4.0 mph 5.8 mph 87 % 0.00 in
07:12 46.9 °F 42.9 °F 30.20 in North 0.4 mph 2.3 mph 86 % 0.00 in
07:17 46.9 °F 42.9 °F 30.20 in North 1.8 mph 2.3 mph 86 % 0.00 in
07:22 46.9 °F 42.6 °F 30.20 in NNE 4.0 mph 5.8 mph 85 % 0.00 in
07:27 47.0 °F 42.7 °F 30.21 in NNE 3.2 mph 4.0 mph 85 % 0.00 in
07:32 47.1 °F 42.8 °F 30.21 in NNE 3.0 mph 4.6 mph 85 % 0.00 in
07:38 47.1 °F 42.8 °F 30.21 in NNE 2.3 mph 3.5 mph 85 % 0.00 in
07:43 47.2 °F 42.9 °F 30.21 in NNE 0.5 mph 2.3 mph 85 % 0.00 in
07:48 47.3 °F 43.0 °F 30.20 in NNE 0.3 mph 2.0 mph 85 % 0.00 in
07:53 47.4 °F 43.1 °F 30.20 in Calm     85 % 0.00 in
07:58 47.4 °F 42.8 °F 30.20 in NNE 1.3 mph 3.5 mph 84 % 0.00 in
08:03 47.5 °F 43.2 °F 30.20 in NNE 1.4 mph 3.0 mph 85 % 0.00 in
08:08 47.7 °F 43.4 °F 30.20 in NNE 0.4 mph 1.2 mph 85 % 0.00 in
08:13 47.8 °F 43.5 °F 30.20 in NNE 0.6 mph 2.3 mph 85 % 0.00 in
08:18 48.0 °F 43.7 °F 30.20 in NNE 0.1 mph 1.2 mph 85 % 0.00 in
08:23 48.6 °F 44.3 °F 30.20 in NNE 0.9 mph 2.3 mph 85 % 0.00 in
08:29 49.2 °F 44.9 °F 30.20 in Calm   1.2 mph 85 % 0.00 in
08:34 49.8 °F 44.8 °F 30.20 in NNE 2.0 mph 3.5 mph 83 % 0.00 in
08:39 50.2 °F 44.6 °F 30.20 in NNE 0.7 mph 3.5 mph 81 % 0.00 in
08:44 50.8 °F 44.9 °F 30.20 in NNE 1.9 mph 3.5 mph 80 % 0.00 in
08:49 51.5 °F 45.5 °F 30.20 in NNE 1.4 mph 3.5 mph 80 % 0.00 in
08:54 51.9 °F 44.9 °F 30.19 in NNE 1.0 mph 2.3 mph 77 % 0.00 in
08:59 52.3 °F 44.6 °F 30.19 in NNE 0.4 mph 2.3 mph 75 % 0.00 in
09:04 52.9 °F 45.5 °F 30.20 in NNE 0.2 mph 1.2 mph 76 % 0.00 in
09:14 54.1 °F 46.0 °F 30.20 in NNE 1.1 mph 3.0 mph 74 % 0.00 in
09:20 54.7 °F 46.2 °F 30.20 in WNW 2.1 mph 3.5 mph 73 % 0.00 in
09:25 55.2 °F 44.0 °F 30.20 in North 3.2 mph 5.0 mph 66 % 0.00 in
09:30 55.3 °F 43.7 °F 30.20 in WNW 3.8 mph 5.8 mph 65 % 0.00 in
09:35 55.8 °F 45.4 °F 30.20 in NW 1.9 mph 3.5 mph 68 % 0.00 in
09:40 56.4 °F 46.7 °F 30.20 in NNE 2.5 mph 3.5 mph 70 % 0.00 in
09:45 56.9 °F 47.2 °F 30.20 in NNW 1.7 mph 4.0 mph 70 % 0.00 in
09:50 57.3 °F 46.0 °F 30.20 in NNW 1.2 mph 3.5 mph 66 % 0.00 in
09:55 57.7 °F 46.8 °F 30.20 in NNW 1.8 mph 3.5 mph 67 % 0.00 in
10:00 58.2 °F 46.1 °F 30.20 in NNW 1.4 mph 3.5 mph 64 % 0.00 in
10:05 58.3 °F 47.4 °F 30.20 in NNW 0.8 mph 3.5 mph 67 % 0.00 in
10:11 58.6 °F 46.9 °F 30.20 in NE 2.9 mph 3.5 mph 65 % 0.00 in
10:16 59.1 °F 47.7 °F 30.20 in NNE 1.9 mph 3.5 mph 66 % 0.00 in
10:21 59.9 °F 48.5 °F 30.20 in NNE 2.3 mph 3.5 mph 66 % 0.00 in
10:26 59.9 °F 46.4 °F 30.20 in NE 2.9 mph 4.6 mph 61 % 0.00 in
10:31 59.4 °F 45.9 °F 30.20 in ENE 1.1 mph 3.5 mph 61 % 0.00 in
10:36 59.4 °F 47.6 °F 30.20 in ENE 1.6 mph 3.0 mph 65 % 0.00 in
10:41 60.1 °F 47.0 °F 30.20 in NNE 2.5 mph 3.5 mph 62 % 0.00 in
10:51 60.1 °F 46.6 °F 30.19 in NE 1.8 mph 3.5 mph 61 % 0.00 in
10:56 60.0 °F 46.5 °F 30.19 in NE 1.5 mph 3.0 mph 61 % 0.00 in
11:02 59.6 °F 46.1 °F 30.19 in NE 2.3 mph 3.5 mph 61 % 0.00 in
11:07 58.9 °F 45.5 °F 30.18 in NE 2.2 mph 4.6 mph 61 % 0.00 in
11:12 59.0 °F 46.8 °F 30.18 in ENE 2.2 mph 4.0 mph 64 % 0.00 in
11:17 59.0 °F 47.7 °F 30.18 in NE 2.1 mph 4.0 mph 66 % 0.00 in
11:22 59.1 °F 46.5 °F 30.18 in ENE 2.4 mph 5.0 mph 63 % 0.00 in
11:27 59.7 °F 48.7 °F 30.18 in NNE 2.4 mph 4.0 mph 67 % 0.00 in
11:32 60.8 °F 49.0 °F 30.18 in NNE 1.7 mph 3.5 mph 65 % 0.00 in
11:37 60.7 °F 46.3 °F 30.18 in ENE 2.4 mph 3.5 mph 59 % 0.00 in
11:42 60.0 °F 47.8 °F 30.18 in NNE 2.5 mph 3.5 mph 64 % 0.00 in
11:47 60.5 °F 47.8 °F 30.18 in ENE 3.8 mph 5.8 mph 63 % 0.00 in
11:53 61.2 °F 47.2 °F 30.18 in ENE 3.5 mph 4.6 mph 60 % 0.00 in
11:58 61.8 °F 47.8 °F 30.18 in ENE 1.4 mph 3.5 mph 60 % 0.00 in
12:03 62.1 °F 46.2 °F 30.18 in ENE 2.3 mph 6.9 mph 56 % 0.00 in
12:08 61.2 °F 46.3 °F 30.18 in North 2.3 mph 3.5 mph 58 % 0.00 in
12:13 61.7 °F 47.2 °F 30.18 in NE 2.8 mph 4.6 mph 59 % 0.00 in
12:18 61.8 °F 45.9 °F 30.18 in ENE 2.8 mph 3.5 mph 56 % 0.00 in
12:23 61.8 °F 45.9 °F 30.18 in ENE 3.1 mph 3.5 mph 56 % 0.00 in
12:28 62.0 °F 43.7 °F 30.18 in ENE 4.0 mph 7.0 mph 51 % 0.00 in
12:33 61.8 °F 43.0 °F 30.17 in NE 4.5 mph 5.8 mph 50 % 0.00 in
12:38 62.2 °F 44.9 °F 30.17 in NE 2.5 mph 5.0 mph 53 % 0.00 in
12:44 61.9 °F 44.6 °F 30.17 in NE 2.9 mph 6.9 mph 53 % 0.00 in
12:49 61.8 °F 43.5 °F 30.17 in ENE 3.7 mph 8.1 mph 51 % 0.00 in
12:54 61.7 °F 43.9 °F 30.17 in ENE 4.3 mph 7.0 mph 52 % 0.00 in
13:04 62.0 °F 42.6 °F 30.17 in ENE 5.6 mph 8.1 mph 49 % 0.00 in
13:09 61.9 °F 42.0 °F 30.17 in ENE 4.8 mph 8.1 mph 48 % 0.00 in
13:14 62.1 °F 45.2 °F 30.17 in NE 3.0 mph 5.8 mph 54 % 0.00 in
13:19 63.1 °F 45.2 °F 30.17 in NNE 5.2 mph 6.9 mph 52 % 0.00 in
13:24 63.9 °F 46.4 °F 30.17 in NNE 5.0 mph 9.2 mph 53 % 0.00 in
13:29 64.0 °F 43.4 °F 30.17 in East 4.8 mph 6.0 mph 47 % 0.00 in
13:35 64.0 °F 46.0 °F 30.17 in East 5.7 mph 9.0 mph 52 % 0.00 in
13:40 63.2 °F 42.6 °F 30.17 in NE 4.2 mph 8.1 mph 47 % 0.00 in
13:45 63.7 °F 45.7 °F 30.17 in NE 4.5 mph 8.1 mph 52 % 0.00 in
13:50 64.1 °F 46.1 °F 30.18 in NE 5.1 mph 8.1 mph 52 % 0.00 in
13:55 64.7 °F 46.7 °F 30.18 in NNE 3.4 mph 4.6 mph 52 % 0.00 in
14:00 64.3 °F 42.5 °F 30.18 in ENE 5.2 mph 8.1 mph 45 % 0.00 in
14:05 63.0 °F 41.3 °F 30.18 in ENE 5.9 mph 8.1 mph 45 % 0.00 in
14:15 61.8 °F 42.4 °F 30.18 in ENE 3.9 mph 7.0 mph 49 % 0.00 in
14:20 61.4 °F 42.1 °F 30.18 in NE 3.3 mph 6.0 mph 49 % 0.00 in
14:26 61.3 °F 40.9 °F 30.18 in ENE 3.1 mph 6.9 mph 47 % 0.00 in
14:31 61.0 °F 39.5 °F 30.18 in ENE 3.7 mph 9.2 mph 45 % 0.00 in
14:36 60.7 °F 40.9 °F 30.19 in ENE 2.0 mph 3.5 mph 48 % 0.00 in
14:41 60.2 °F 41.0 °F 30.19 in ENE 2.4 mph 4.0 mph 49 % 0.00 in
14:46 59.8 °F 42.1 °F 30.19 in NE 0.2 mph 4.6 mph 52 % 0.00 in
14:51 60.1 °F 44.8 °F 30.19 in SSE 0.7 mph 3.5 mph 57 % 0.00 in
14:56 60.5 °F 46.5 °F 30.19 in SSW 0.2 mph 2.3 mph 60 % 0.00 in
15:01 61.0 °F 45.7 °F 30.19 in SE 3.3 mph 10.4 mph 57 % 0.00 in
15:06 61.8 °F 45.9 °F 30.19 in SSE 5.0 mph 8.1 mph 56 % 0.00 in
15:11 62.0 °F 45.6 °F 30.19 in ESE 4.1 mph 8.1 mph 55 % 0.00 in
15:17 62.0 °F 46.1 °F 30.19 in SSE 5.9 mph 12.0 mph 56 % 0.00 in
15:22 61.2 °F 44.4 °F 30.19 in South 5.7 mph 9.2 mph 54 % 0.00 in
15:27 60.8 °F 44.5 °F 30.19 in SE 6.8 mph 9.2 mph 55 % 0.00 in
15:32 61.4 °F 45.1 °F 30.18 in SE 3.6 mph 10.4 mph 55 % 0.00 in
15:37 61.4 °F 45.6 °F 30.19 in ESE 3.0 mph 5.8 mph 56 % 0.00 in
15:42 61.7 °F 45.4 °F 30.18 in South 1.9 mph 4.6 mph 55 % 0.00 in
15:47 61.8 °F 44.5 °F 30.18 in ESE 6.6 mph 9.2 mph 53 % 0.00 in
15:52 62.0 °F 46.1 °F 30.18 in SSE 0.6 mph 4.6 mph 56 % 0.00 in
15:57 61.7 °F 44.9 °F 30.18 in WSW 3.3 mph 10.0 mph 54 % 0.00 in
16:08 61.4 °F 44.6 °F 30.18 in South 3.0 mph 13.8 mph 54 % 0.00 in
16:13 61.2 °F 44.4 °F 30.18 in South 2.9 mph 4.6 mph 54 % 0.00 in
16:18 61.5 °F 44.7 °F 30.18 in SSE 3.3 mph 4.6 mph 54 % 0.00 in
16:23 61.6 °F 44.8 °F 30.18 in SSE 5.1 mph 8.0 mph 54 % 0.00 in
16:28 61.6 °F 44.3 °F 30.18 in SSE 0.8 mph 6.9 mph 53 % 0.00 in
16:33 61.6 °F 44.3 °F 30.18 in SW 4.5 mph 5.0 mph 53 % 0.00 in
16:38 61.9 °F 44.6 °F 30.18 in SW 1.7 mph 8.1 mph 53 % 0.00 in
16:43 62.2 °F 45.3 °F 30.18 in SSW 1.2 mph 4.6 mph 54 % 0.00 in
16:48 62.2 °F 43.8 °F 30.18 in SSE 4.5 mph 8.1 mph 51 % 0.00 in
16:53 61.9 °F 43.6 °F 30.18 in SE 1.2 mph 4.6 mph 51 % 0.00 in
16:59 61.7 °F 43.9 °F 30.19 in SE 3.3 mph 5.8 mph 52 % 0.00 in
17:04 61.3 °F 44.0 °F 30.19 in SE 1.4 mph 5.8 mph 53 % 0.00 in
17:09 61.2 °F 43.4 °F 30.19 in SE 1.1 mph 5.8 mph 52 % 0.00 in
17:14 61.0 °F 43.2 °F 30.19 in SSW 2.9 mph 4.6 mph 52 % 0.00 in
17:19 60.9 °F 42.6 °F 30.19 in South 1.8 mph 3.5 mph 51 % 0.00 in
17:24 60.8 °F 42.5 °F 30.19 in SE 4.2 mph 8.1 mph 51 % 0.00 in
17:29 60.1 °F 41.9 °F 30.19 in South 4.3 mph 5.8 mph 51 % 0.00 in
17:34 59.3 °F 41.7 °F 30.19 in SSE 1.5 mph 2.3 mph 52 % 0.00 in
17:39 59.1 °F 42.0 °F 30.19 in South 6.4 mph 6.4 mph 53 % 0.00 in
17:44 58.7 °F 41.6 °F 30.19 in SSE 3.0 mph 11.5 mph 53 % 0.00 in
17:50 58.1 °F 41.0 °F 30.19 in South 5.0 mph 5.8 mph 53 % 0.00 in
17:55 57.7 °F 41.2 °F 30.19 in SSE 5.4 mph 8.1 mph 54 % 0.00 in
18:00 57.5 °F 41.0 °F 30.19 in SSE 1.4 mph 5.0 mph 54 % 0.00 in
18:05 57.2 °F 41.2 °F 30.19 in SSE 4.5 mph 6.9 mph 55 % 0.00 in
18:10 57.1 °F 41.5 °F 30.19 in SSW 2.6 mph 3.5 mph 56 % 0.00 in
18:15 57.0 °F 41.4 °F 30.19 in South 2.0 mph 4.6 mph 56 % 0.00 in
18:20 56.6 °F 40.6 °F 30.19 in South 2.4 mph 5.8 mph 55 % 0.00 in
18:25 56.4 °F 40.9 °F 30.20 in South 2.0 mph 3.5 mph 56 % 0.00 in
18:30 56.3 °F 40.8 °F 30.19 in South 1.8 mph 5.8 mph 56 % 0.00 in
18:36 56.2 °F 40.7 °F 30.19 in SSE 2.9 mph 3.5 mph 56 % 0.00 in
18:41 55.9 °F 40.4 °F 30.20 in SSE 5.2 mph 9.0 mph 56 % 0.00 in
18:46 55.4 °F 40.4 °F 30.20 in SSW 2.8 mph 5.8 mph 57 % 0.00 in
18:51 55.3 °F 40.3 °F 30.20 in South 5.2 mph 10.4 mph 57 % 0.00 in
18:56 55.0 °F 40.5 °F 30.20 in SSE 5.0 mph 9.2 mph 58 % 0.00 in
19:01 54.7 °F 40.6 °F 30.21 in SSE 2.2 mph 4.6 mph 59 % 0.00 in
19:06 54.5 °F 40.5 °F 30.21 in South 3.0 mph 6.9 mph 59 % 0.00 in
19:11 54.1 °F 40.5 °F 30.21 in South 0.5 mph 3.5 mph 60 % 0.00 in
19:16 53.7 °F 40.1 °F 30.21 in SSW 2.9 mph 5.8 mph 60 % 0.00 in
19:21 53.4 °F 39.9 °F 30.22 in SSE 0.3 mph 3.5 mph 60 % 0.00 in
19:27 53.2 °F 40.1 °F 30.22 in SSE 0.7 mph 2.3 mph 61 % 0.00 in
19:37 52.7 °F 39.6 °F 30.22 in SSW 1.5 mph 4.0 mph 61 % 0.00 in
19:42 52.4 °F 39.3 °F 30.22 in WSW 0.5 mph 2.3 mph 61 % 0.00 in
19:47 52.0 °F 39.4 °F 30.23 in South 2.1 mph 4.6 mph 62 % 0.00 in
19:52 51.7 °F 39.5 °F 30.23 in SSE 1.4 mph 4.6 mph 63 % 0.00 in
19:57 51.4 °F 39.2 °F 30.22 in Calm     63 % 0.00 in
20:02 51.2 °F 39.4 °F 30.22 in SW 0.1 mph 2.3 mph 64 % 0.00 in
20:07 51.0 °F 39.2 °F 30.23 in SSW 0.2 mph 3.5 mph 64 % 0.00 in
20:12 50.7 °F 39.0 °F 30.22 in SE 1.0 mph 2.0 mph 64 % 0.00 in
20:18 50.5 °F 39.2 °F 30.22 in SW 0.9 mph 3.5 mph 65 % 0.00 in
20:23 50.3 °F 39.0 °F 30.23 in South 1.7 mph 3.5 mph 65 % 0.00 in
20:28 50.1 °F 39.2 °F 30.23 in South 1.5 mph 6.9 mph 66 % 0.00 in
20:33 49.8 °F 39.3 °F 30.23 in SSE 2.7 mph 4.6 mph 67 % 0.00 in
20:38 49.7 °F 39.2 °F 30.23 in WSW 1.1 mph 3.5 mph 67 % 0.00 in
20:43 49.6 °F 39.5 °F 30.23 in WSW 0.4 mph 2.0 mph 68 % 0.00 in
20:48 49.5 °F 39.4 °F 30.23 in Calm   1.2 mph 68 % 0.00 in
20:53 49.3 °F 39.2 °F 30.23 in WSW 1.1 mph 2.3 mph 68 % 0.00 in
20:58 49.2 °F 39.5 °F 30.23 in Calm   1.2 mph 69 % 0.00 in
21:03 49.1 °F 39.4 °F 30.24 in WSW 1.4 mph 2.3 mph 69 % 0.00 in
21:09 48.9 °F 39.5 °F 30.24 in WSW 1.5 mph 3.5 mph 70 % 0.00 in
21:14 48.7 °F 39.4 °F 30.24 in Calm     70 % 0.00 in
21:19 48.6 °F 39.3 °F 30.23 in WSW 0.2 mph 2.3 mph 70 % 0.00 in
21:24 48.4 °F 39.4 °F 30.24 in Calm     71 % 0.00 in
21:29 48.2 °F 39.6 °F 30.24 in SSE 1.2 mph 2.3 mph 72 % 0.00 in
21:34 48.1 °F 39.5 °F 30.23 in Calm     72 % 0.00 in
21:39 48.0 °F 39.4 °F 30.23 in SSE 0.6 mph 1.2 mph 72 % 0.00 in
21:44 47.9 °F 39.7 °F 30.23 in Calm     73 % 0.00 in
21:54 47.6 °F 39.7 °F 30.23 in Calm     74 % 0.00 in
22:00 47.4 °F 39.9 °F 30.22 in Calm     75 % 0.00 in
22:05 47.3 °F 39.8 °F 30.22 in Calm   1.2 mph 75 % 0.00 in
22:10 47.2 °F 40.0 °F 30.22 in Calm   2.3 mph 76 % 0.00 in
22:15 47.0 °F 39.8 °F 30.23 in Calm     76 % 0.00 in
22:20 46.9 °F 40.1 °F 30.23 in Calm     77 % 0.00 in
22:25 46.8 °F 40.0 °F 30.23 in Calm     77 % 0.00 in
22:30 46.7 °F 39.9 °F 30.23 in Calm     77 % 0.00 in
22:35 46.6 °F 39.8 °F 30.23 in Calm     77 % 0.00 in
22:40 46.5 °F 39.7 °F 30.23 in Calm     77 % 0.00 in
22:45 46.4 °F 39.9 °F 30.23 in SSE 0.2 mph   78 % 0.00 in
22:51 46.3 °F 39.8 °F 30.24 in Calm     78 % 0.00 in
22:56 46.2 °F 39.7 °F 30.24 in Calm     78 % 0.00 in
23:01 46.1 °F 39.9 °F 30.24 in Calm     79 % 0.00 in
23:06 46.0 °F 39.9 °F 30.24 in Calm     79 % 0.00 in
23:11 45.8 °F 39.7 °F 30.23 in Calm     79 % 0.00 in
23:16 45.7 °F 39.6 °F 30.23 in Calm     79 % 0.00 in
23:21 45.5 °F 39.4 °F 30.23 in Calm     79 % 0.00 in
23:26 45.4 °F 39.6 °F 30.23 in Calm     80 % 0.00 in
23:31 45.3 °F 39.5 °F 30.23 in Calm     80 % 0.00 in
23:36 45.2 °F 39.7 °F 30.23 in Calm     81 % 0.00 in
23:42 45.2 °F 40.0 °F 30.23 in Calm     82 % 0.00 in
23:47 45.2 °F 40.0 °F 30.23 in Calm     82 % 0.00 in
23:52 45.2 °F 40.3 °F 30.23 in Calm     83 % 0.00 in
23:57 45.2 °F 40.3 °F 30.24 in Calm     83 % 0.00 in
Crab Meadow Weather
Compliments of Weather Underground - 2.75 mb

Script developed by  Jim McMurry - jmcmurry@mwt.net Adapted for the template by  Wim van der Kuil - Leuven-Template.eu

Weather Terms: Warning - A warning is issued when a hazardous weather or hydrologic event is occurring, imminent or likely. A warning means weather conditions pose a threat to life or property. People in the path of the storm need to take protective action.